createdAt,value
2023-04-02T00:01:05.993Z,90.58
2023-04-02T00:02:46.511Z,90.47
2023-04-02T00:04:26.830Z,90.42
2023-04-02T00:06:07.242Z,90.8
2023-04-02T00:07:47.608Z,91.35
2023-04-02T00:09:27.947Z,91.52
2023-04-02T00:11:08.404Z,90.83
2023-04-02T00:12:48.802Z,89.98
2023-04-02T00:14:29.202Z,90.34
2023-04-02T00:16:09.589Z,90.41
2023-04-02T00:17:50.000Z,91
2023-04-02T00:19:30.339Z,91.37
2023-04-02T00:21:10.740Z,91.06
2023-04-02T00:22:51.131Z,90.27
2023-04-02T00:24:31.468Z,90.34
2023-04-02T00:26:11.836Z,90.29
2023-04-02T00:27:52.198Z,90.5
2023-04-02T00:29:32.541Z,90
2023-04-02T00:31:12.945Z,90.31
2023-04-02T00:32:53.299Z,89.96
2023-04-02T00:34:33.668Z,89.95
2023-04-02T00:36:14.141Z,90.26
2023-04-02T00:37:54.517Z,90.62
2023-04-02T00:39:35.000Z,90.7
2023-04-02T00:41:15.458Z,90.54
2023-04-02T00:42:55.777Z,90.8
2023-04-02T00:44:36.162Z,91.25
2023-04-02T00:46:16.575Z,90.98
2023-04-02T00:47:57.017Z,91.39
2023-04-02T00:49:37.346Z,91.47
2023-04-02T00:51:17.696Z,91.82
2023-04-02T00:52:58.127Z,92.1
2023-04-02T00:54:38.562Z,92.06
2023-04-02T00:56:19.096Z,92.06
2023-04-02T00:57:59.488Z,92.11
2023-04-02T00:59:39.860Z,92.51
2023-04-02T01:01:20.271Z,91.96
2023-04-02T01:03:00.701Z,92.02
2023-04-02T01:04:41.013Z,91.93
2023-04-02T01:06:21.450Z,91.38
2023-04-02T01:08:01.831Z,91.8
2023-04-02T01:09:42.243Z,91.61
2023-04-02T01:11:22.645Z,91.6
2023-04-02T01:13:02.998Z,92.08
2023-04-02T01:14:43.379Z,92.24
2023-04-02T01:16:23.936Z,92.14
2023-04-02T01:18:04.252Z,92.12
2023-04-02T01:19:44.658Z,92.25
2023-04-02T01:21:25.132Z,91.96
2023-04-02T01:23:05.524Z,91.75
2023-04-02T01:24:45.892Z,91.57
2023-04-02T01:26:26.400Z,92.08
2023-04-02T01:28:06.766Z,92.07
2023-04-02T01:29:47.169Z,92.02
2023-04-02T01:31:27.607Z,92.04
2023-04-02T01:33:08.020Z,92.08
2023-04-02T01:34:48.436Z,92.22
2023-04-02T01:36:28.769Z,92.11
2023-04-02T01:38:09.103Z,91.75
2023-04-02T01:39:49.426Z,92.26
2023-04-02T01:41:29.850Z,92.11
2023-04-02T01:43:10.292Z,92.33
2023-04-02T01:44:50.689Z,92.61
2023-04-02T01:46:31.044Z,92.63
2023-04-02T01:48:11.463Z,92.85
2023-04-02T01:49:51.784Z,92.74
2023-04-02T01:51:32.191Z,92.66
2023-04-02T01:53:12.563Z,92.57
2023-04-02T01:54:53.033Z,92.7
2023-04-02T01:56:33.515Z,92.58
2023-04-02T01:58:13.882Z,92.09
2023-04-02T01:59:54.189Z,92.48
2023-04-02T02:01:34.611Z,92.73
2023-04-02T02:03:14.984Z,92.66
2023-04-02T02:04:55.299Z,92.78
2023-04-02T02:06:50.787Z,93.04
2023-04-02T02:08:16.094Z,93.1
2023-04-02T02:09:56.466Z,92.99
2023-04-02T02:11:36.957Z,92.37
2023-04-02T02:13:17.353Z,91.99
2023-04-02T02:16:38.116Z,92.19
2023-04-02T02:18:18.533Z,92.75
2023-04-02T02:19:58.941Z,91.81
2023-04-02T02:21:39.370Z,92.41
2023-04-02T02:23:19.784Z,92.66
2023-04-02T02:25:00.145Z,92.61
2023-04-02T02:26:40.460Z,92.18
2023-04-02T02:28:20.895Z,92.27
2023-04-02T02:30:01.270Z,92.08
2023-04-02T02:31:41.736Z,92.44
2023-04-02T02:33:22.102Z,92.05
2023-04-02T02:35:02.464Z,91.43
2023-04-02T02:36:42.926Z,91.96
2023-04-02T02:38:23.277Z,92.35
2023-04-02T02:40:03.650Z,92.27
2023-04-02T02:41:44.016Z,91.74
2023-04-02T02:43:24.441Z,91.67
2023-04-02T02:45:04.886Z,91.84
2023-04-02T02:46:45.249Z,92.12
2023-04-02T02:48:25.738Z,91.77
2023-04-02T02:50:06.042Z,92.11
2023-04-02T02:51:46.490Z,91.15
2023-04-02T02:53:26.919Z,91.09
2023-04-02T02:55:07.253Z,91.42
2023-04-02T02:56:47.574Z,91.74
2023-04-02T02:58:27.917Z,92.07
2023-04-02T03:00:08.274Z,92.07
2023-04-02T03:01:48.654Z,92.21
2023-04-02T03:03:29.177Z,92.1
2023-04-02T03:05:09.575Z,92.11
2023-04-02T03:06:49.805Z,92.38
2023-04-02T03:08:30.189Z,92.46
2023-04-02T03:10:10.600Z,92.67
2023-04-02T03:11:50.951Z,92.73
2023-04-02T03:13:31.307Z,92.69
2023-04-02T03:15:11.646Z,92.49
2023-04-02T03:16:52.081Z,92.23
2023-04-02T03:18:32.514Z,92.16
2023-04-02T03:20:12.892Z,92.51
2023-04-02T03:21:53.301Z,92.37
2023-04-02T03:23:33.654Z,91.59
2023-04-02T03:25:14.069Z,91.06
2023-04-02T03:26:54.447Z,90.83
2023-04-02T03:28:34.863Z,90.84
2023-04-02T03:30:15.235Z,91.29
2023-04-02T03:31:55.547Z,91.22
2023-04-02T03:33:35.942Z,90.94
2023-04-02T03:35:16.219Z,91.29
2023-04-02T03:36:56.637Z,91.05
2023-04-02T03:38:37.050Z,90.88
2023-04-02T03:40:17.487Z,91.1
2023-04-02T03:41:57.868Z,91.2
2023-04-02T03:43:38.298Z,91
2023-04-02T03:45:18.706Z,91.24
2023-04-02T03:46:59.062Z,91.44
2023-04-02T03:48:39.422Z,91.46
2023-04-02T03:50:19.840Z,91.5
2023-04-02T03:52:00.178Z,90.9
2023-04-02T03:53:40.543Z,90.7
2023-04-02T03:55:20.950Z,90.53
2023-04-02T03:57:01.393Z,90.9
2023-04-02T03:58:41.715Z,91.24
2023-04-02T04:00:22.038Z,91.52
2023-04-02T04:02:02.436Z,91.62
2023-04-02T04:03:42.834Z,91.54
2023-04-02T04:05:23.215Z,91.68
2023-04-02T04:07:03.648Z,91.66
2023-04-02T04:08:44.066Z,90.81
2023-04-02T04:10:24.517Z,90.38
2023-04-02T04:12:04.813Z,90.04
2023-04-02T04:13:45.233Z,90.19
2023-04-02T04:15:25.617Z,90.34
2023-04-02T04:17:05.991Z,91.24
2023-04-02T04:18:46.425Z,91.28
2023-04-02T04:20:26.910Z,91.13
2023-04-02T04:22:07.230Z,90.94
2023-04-02T04:23:47.606Z,91.05
2023-04-02T04:25:27.977Z,91.06
2023-04-02T04:27:08.308Z,91.43
2023-04-02T04:28:48.748Z,91.21
2023-04-02T04:30:29.143Z,90.53
2023-04-02T04:32:09.511Z,90.7
2023-04-02T04:33:49.844Z,90.58
2023-04-02T04:35:30.254Z,90.73
2023-04-02T04:37:10.639Z,90.55
2023-04-02T04:38:50.968Z,90.89
2023-04-02T04:40:31.268Z,90.77
2023-04-02T04:42:11.631Z,90.63
2023-04-02T04:43:51.963Z,90.94
2023-04-02T04:45:32.601Z,90.54
2023-04-02T04:47:12.661Z,90.68
2023-04-02T04:48:53.062Z,90.51
2023-04-02T04:50:33.514Z,90.89
2023-04-02T04:52:13.848Z,91.84
2023-04-02T04:53:54.133Z,91.59
2023-04-02T04:55:34.683Z,90.68
2023-04-02T04:57:14.947Z,91.11
2023-04-02T04:58:55.345Z,90.69
2023-04-02T05:00:35.753Z,90.48
2023-04-02T05:02:16.144Z,90.07
2023-04-02T05:03:56.480Z,90.75
2023-04-02T05:05:37.115Z,90.99
2023-04-02T05:07:17.225Z,90.6
2023-04-02T05:08:57.578Z,90.93
2023-04-02T05:10:38.056Z,91.6
2023-04-02T05:12:18.489Z,90.83
2023-04-02T05:13:58.912Z,90.96
2023-04-02T05:15:39.585Z,90.32
2023-04-02T05:17:19.693Z,90.15
2023-04-02T05:19:00.064Z,90.42
2023-04-02T05:20:40.535Z,90.24
2023-04-02T05:22:20.939Z,90
2023-04-02T05:24:01.395Z,90.05
2023-04-02T05:25:41.778Z,90.77
2023-04-02T05:27:22.159Z,90.9
2023-04-02T05:29:02.488Z,89.66
2023-04-02T05:30:42.929Z,89.8
2023-04-02T05:32:23.300Z,89.66
2023-04-02T05:34:03.706Z,89.46
2023-04-02T05:35:44.160Z,89.53
2023-04-02T05:37:24.439Z,89.78
2023-04-02T05:39:04.801Z,89.48
2023-04-02T05:40:45.090Z,90.14
2023-04-02T05:42:25.463Z,90.4
2023-04-02T05:44:05.888Z,90.51
2023-04-02T05:45:46.322Z,89.98
2023-04-02T05:47:26.835Z,89.56
2023-04-02T05:49:07.252Z,89.94
2023-04-02T05:50:47.661Z,89.94
2023-04-02T05:52:28.056Z,89.15
2023-04-02T05:54:08.417Z,89.35
2023-04-02T05:55:48.780Z,88.98
2023-04-02T05:57:42.853Z,89.07
2023-04-02T05:59:09.611Z,89.06
2023-04-02T06:00:49.927Z,89.7
2023-04-02T06:02:30.390Z,89.24
2023-04-02T06:04:10.808Z,89.2
2023-04-02T06:05:51.010Z,88.86
2023-04-02T06:07:31.443Z,88.78
2023-04-02T06:09:11.839Z,88.48
2023-04-02T06:10:52.293Z,88.91
2023-04-02T06:12:32.670Z,88.07
2023-04-02T06:14:13.029Z,88.4
2023-04-02T06:15:53.404Z,87.91
2023-04-02T06:17:33.754Z,87.9
2023-04-02T06:19:14.055Z,87.86
2023-04-02T06:20:54.466Z,88.1
2023-04-02T06:22:34.918Z,87.95
2023-04-02T06:24:15.285Z,88.03
2023-04-02T06:25:55.769Z,88.34
2023-04-02T06:27:36.106Z,88.35
2023-04-02T06:29:16.554Z,88.82
2023-04-02T06:30:56.947Z,88.22
2023-04-02T06:32:37.317Z,88.7
2023-04-02T06:34:17.734Z,87.97
2023-04-02T06:35:58.214Z,88.26
2023-04-02T06:37:38.600Z,88.43
2023-04-02T06:39:19.009Z,88.83
2023-04-02T06:40:59.338Z,88.61
2023-04-02T06:42:39.803Z,88.75
2023-04-02T06:44:20.358Z,87.85
2023-04-02T06:46:00.659Z,87.44
2023-04-02T06:47:41.137Z,87.62
2023-04-02T06:49:21.511Z,86.85
2023-04-02T06:51:01.926Z,86.55
2023-04-02T06:52:42.355Z,87.15
2023-04-02T06:54:22.801Z,87.61
2023-04-02T06:56:03.156Z,86.17
2023-04-02T06:57:43.523Z,86.36
2023-04-02T06:59:23.826Z,86.96
2023-04-02T07:01:04.381Z,86.21
2023-04-02T07:02:44.665Z,86.81
2023-04-02T07:04:25.005Z,85.95
2023-04-02T07:06:05.286Z,85.68
2023-04-02T07:07:45.725Z,85.57
2023-04-02T07:09:26.091Z,85.34
2023-04-02T07:11:06.521Z,85.11
2023-04-02T07:12:46.950Z,84.73
2023-04-02T07:14:27.288Z,84.35
2023-04-02T07:16:07.895Z,85.08
2023-04-02T07:17:48.171Z,84.43
2023-04-02T07:19:28.527Z,83.79
2023-04-02T07:21:08.910Z,84.16
2023-04-02T07:22:49.364Z,83.81
2023-04-02T07:24:29.751Z,83.81
2023-04-02T07:26:10.180Z,84.02
2023-04-02T07:27:50.512Z,85.16
2023-04-02T07:29:30.845Z,83.8
2023-04-02T07:31:11.270Z,84.5
2023-04-02T07:32:51.782Z,83.07
2023-04-02T07:34:32.098Z,82.65
2023-04-02T07:36:12.536Z,83.94
2023-04-02T07:37:52.998Z,83.51
2023-04-02T07:39:35.535Z,83.41
2023-04-02T07:41:13.816Z,83.79
2023-04-02T07:42:54.251Z,83.46
2023-04-02T07:44:34.721Z,82.51
2023-04-02T07:46:15.119Z,82.69
2023-04-02T07:47:55.555Z,83.19
2023-04-02T07:49:35.935Z,84
2023-04-02T07:51:16.381Z,81.8
2023-04-02T07:52:56.784Z,82.85
2023-04-02T07:54:37.179Z,83.73
2023-04-02T07:56:17.525Z,81.45
2023-04-02T07:57:57.898Z,81.26
2023-04-02T07:59:38.315Z,83.11
2023-04-02T08:01:18.625Z,82.36
2023-04-02T08:02:59.178Z,81.77
2023-04-02T08:04:39.457Z,80.46
2023-04-02T08:06:19.957Z,81.8
2023-04-02T08:08:00.265Z,79.84
2023-04-02T08:09:40.685Z,80.85
2023-04-02T08:11:21.014Z,81.67
2023-04-02T08:13:01.271Z,78.96
2023-04-02T08:14:41.608Z,80.89
2023-04-02T08:16:22.033Z,79.93
2023-04-02T08:18:02.472Z,80.74
2023-04-02T08:19:54.262Z,80.52
2023-04-02T08:21:23.185Z,79.37
2023-04-02T08:23:03.592Z,80.06
2023-04-02T08:24:43.900Z,78.49
2023-04-02T08:26:24.242Z,78.76
2023-04-02T08:28:04.675Z,79.22
2023-04-02T08:29:45.149Z,79.74
2023-04-02T08:31:25.572Z,78.43
2023-04-02T08:33:05.939Z,78.35
2023-04-02T08:34:46.367Z,80.12
2023-04-02T08:36:26.842Z,78.61
2023-04-02T08:38:07.184Z,77.22
2023-04-02T08:39:47.709Z,78.83
2023-04-02T08:41:28.088Z,78.03
2023-04-02T08:43:08.533Z,78.59
2023-04-02T08:44:48.886Z,77.49
2023-04-02T08:46:29.303Z,77.37
2023-04-02T08:48:09.692Z,76.1
2023-04-02T08:49:50.116Z,76.5
2023-04-02T08:51:30.526Z,78.43
2023-04-02T08:53:10.930Z,76.81
2023-04-02T08:54:51.293Z,76
2023-04-02T08:56:31.712Z,75.75
2023-04-02T08:58:12.133Z,76.48
2023-04-02T08:59:52.585Z,75.22
2023-04-02T09:01:32.855Z,74.73
2023-04-02T09:03:13.236Z,76.14
2023-04-02T09:04:53.710Z,75.74
2023-04-02T09:06:34.144Z,72.91
2023-04-02T09:08:14.517Z,72.69
2023-04-02T09:09:54.904Z,72.3
2023-04-02T09:11:35.268Z,72.18
2023-04-02T09:13:15.643Z,70.18
2023-04-02T09:14:56.013Z,68.51
2023-04-02T09:16:36.334Z,70.57
2023-04-02T09:18:16.822Z,70.32
2023-04-02T09:19:57.081Z,69.93
2023-04-02T09:21:37.486Z,68.53
2023-04-02T09:23:17.797Z,69.71
2023-04-02T09:24:58.114Z,69.56
2023-04-02T09:26:38.661Z,68.47
2023-04-02T09:28:19.016Z,69.64
2023-04-02T09:29:59.447Z,68.89
2023-04-02T09:31:39.908Z,70.85
2023-04-02T09:33:20.220Z,71.51
2023-04-02T09:35:00.568Z,69.11
2023-04-02T09:36:41.002Z,68.67
2023-04-02T09:38:21.507Z,69.68
2023-04-02T09:40:01.842Z,68.44
2023-04-02T09:41:42.906Z,65.55
2023-04-02T09:43:22.732Z,65.71
2023-04-02T09:45:03.053Z,67.06
2023-04-02T09:46:43.480Z,65.59
2023-04-02T09:48:23.868Z,67.01
2023-04-02T09:50:04.279Z,66.6
2023-04-02T09:51:44.649Z,68.52
2023-04-02T09:53:25.097Z,67.36
2023-04-02T09:55:05.537Z,67.93
2023-04-02T09:56:45.839Z,68.22
2023-04-02T09:58:26.265Z,68.05
2023-04-02T10:00:08.805Z,68.31
2023-04-02T10:01:46.998Z,70.13
2023-04-02T10:03:27.359Z,71.07
2023-04-02T10:05:07.707Z,69.83
2023-04-02T10:06:48.028Z,66.46
2023-04-02T10:08:28.456Z,70.05
2023-04-02T10:10:08.838Z,66.92
2023-04-02T10:11:49.188Z,66.39
2023-04-02T10:13:29.547Z,64.2
2023-04-02T10:15:09.994Z,63.27
2023-04-02T10:16:50.500Z,64.15
2023-04-02T10:18:30.846Z,64.93
2023-04-02T10:20:11.295Z,62.49
2023-04-02T10:21:51.700Z,61.9
2023-04-02T10:23:32.090Z,60.54
2023-04-02T10:25:12.559Z,59.17
2023-04-02T10:26:52.843Z,58.8
2023-04-02T10:28:33.124Z,57.89
2023-04-02T10:30:13.623Z,59.8
2023-04-02T10:31:53.948Z,58.49
2023-04-02T10:33:34.311Z,59.44
2023-04-02T10:35:14.805Z,58.53
2023-04-02T10:36:55.234Z,63.43
2023-04-02T10:38:35.654Z,60.56
2023-04-02T10:40:16.042Z,61.07
2023-04-02T10:41:56.437Z,59.6
2023-04-02T10:43:36.844Z,59.78
2023-04-02T10:45:17.265Z,58.95
2023-04-02T10:46:57.679Z,62.45
2023-04-02T10:48:38.111Z,61.7
2023-04-02T10:50:18.459Z,57.87
2023-04-02T10:51:58.874Z,60.45
2023-04-02T10:53:39.261Z,64.29
2023-04-02T10:55:19.721Z,61.31
2023-04-02T10:57:00.237Z,59.42
2023-04-02T10:58:40.576Z,58.63
2023-04-02T11:00:20.937Z,59.76
2023-04-02T11:02:01.362Z,56.94
2023-04-02T11:03:41.970Z,57.71
2023-04-02T11:05:22.081Z,56.78
2023-04-02T11:07:13.267Z,57.12
2023-04-02T11:08:42.948Z,57.73
2023-04-02T11:10:23.301Z,59.03
2023-04-02T11:12:03.643Z,59.83
2023-04-02T11:13:47.088Z,60.39
2023-04-02T11:15:24.488Z,58.51
2023-04-02T11:17:04.863Z,61.07
2023-04-02T11:18:45.250Z,60.09
2023-04-02T11:20:25.587Z,60.96
2023-04-02T11:22:06.844Z,60.12
2023-04-02T11:23:46.472Z,62.01
2023-04-02T11:25:29.936Z,62.46
2023-04-02T11:27:07.312Z,62.18
2023-04-02T11:28:47.639Z,62.19
2023-04-02T11:30:28.028Z,61.48
2023-04-02T11:32:08.337Z,64.12
2023-04-02T11:33:50.078Z,64.25
2023-04-02T11:35:29.080Z,63.56
2023-04-02T11:37:09.421Z,63.57
2023-04-02T11:38:51.708Z,63.25
2023-04-02T11:40:30.244Z,64.2
2023-04-02T11:42:10.609Z,65.7
2023-04-02T11:43:50.962Z,63.93
2023-04-02T11:45:33.754Z,63.34
2023-04-02T11:47:11.733Z,64.45
2023-04-02T11:48:52.092Z,63.81
2023-04-02T11:50:32.374Z,64.53
2023-04-02T11:52:13.019Z,66.39
2023-04-02T11:53:53.263Z,65.56
2023-04-02T11:55:33.862Z,65.42
2023-04-02T11:57:14.245Z,64.2
2023-04-02T11:58:54.657Z,63.35
2023-04-02T12:00:35.259Z,63.05
2023-04-02T12:02:15.500Z,63.61
2023-04-02T12:03:55.920Z,61.44
2023-04-02T12:05:36.647Z,61.81
2023-04-02T12:07:16.702Z,61.05
2023-04-02T12:08:58.287Z,62.44
2023-04-02T12:10:37.473Z,61.26
2023-04-02T12:12:17.873Z,61.99
2023-04-02T12:13:58.240Z,63.55
2023-04-02T12:15:38.626Z,62.95
2023-04-02T12:17:19.056Z,61.42
2023-04-02T12:18:59.508Z,61.51
2023-04-02T12:20:39.838Z,60.46
2023-04-02T12:22:20.202Z,60.36
2023-04-02T12:24:00.667Z,60.15
2023-04-02T12:25:41.117Z,60.19
2023-04-02T12:27:21.450Z,58.38
2023-04-02T12:29:01.836Z,58.52
2023-04-02T12:30:42.149Z,56.59
2023-04-02T12:32:22.557Z,58.64
2023-04-02T12:34:05.983Z,56.41
2023-04-02T12:35:43.327Z,59.64
2023-04-02T12:37:23.716Z,59.53
2023-04-02T12:39:04.004Z,58.94
2023-04-02T12:40:44.401Z,59.02
2023-04-02T12:42:24.725Z,57.73
2023-04-02T12:44:05.194Z,56.02
2023-04-02T12:45:45.515Z,60.14
2023-04-02T12:47:26.056Z,56.38
2023-04-02T12:49:06.306Z,56.48
2023-04-02T12:50:46.713Z,57.97
2023-04-02T12:52:27.170Z,59.03
2023-04-02T12:54:07.514Z,57.78
2023-04-02T12:55:47.876Z,58.63
2023-04-02T12:57:31.353Z,57.01
2023-04-02T12:59:08.607Z,57.28
2023-04-02T13:00:49.018Z,59.52
2023-04-02T13:02:29.399Z,60.96
2023-04-02T13:04:09.742Z,61.24
2023-04-02T13:05:50.080Z,62.46
2023-04-02T13:07:30.453Z,59.93
2023-04-02T13:09:10.922Z,57.53
2023-04-02T13:10:54.370Z,56.6
2023-04-02T13:12:31.757Z,58.43
2023-04-02T13:14:12.214Z,58.65
2023-04-02T13:15:52.575Z,57.93
2023-04-02T13:17:32.931Z,58.05
2023-04-02T13:19:13.321Z,57.41
2023-04-02T13:20:53.659Z,57.76
2023-04-02T13:22:34.075Z,58.66
2023-04-02T13:24:14.441Z,58.55
2023-04-02T13:25:54.919Z,58.86
2023-04-02T13:27:35.264Z,59.21
2023-04-02T13:29:15.647Z,60.23
2023-04-02T13:30:56.077Z,58.62
2023-04-02T13:32:36.546Z,57.72
2023-04-02T13:34:16.906Z,58.88
2023-04-02T13:36:00.471Z,58.37
2023-04-02T13:37:37.853Z,58.4
2023-04-02T13:39:18.153Z,57.77
2023-04-02T13:40:58.607Z,59.66
2023-04-02T13:42:39.005Z,58.73
2023-04-02T13:44:19.464Z,61.8
2023-04-02T13:45:59.948Z,59.9
2023-04-02T13:47:41.365Z,58.83
2023-04-02T13:49:20.655Z,59.14
2023-04-02T13:51:01.044Z,57.54
2023-04-02T13:52:41.426Z,57.75
2023-04-02T13:54:21.859Z,58.08
2023-04-02T13:56:02.261Z,57.4
2023-04-02T13:57:42.693Z,58.01
2023-04-02T13:59:23.126Z,58.34
2023-04-02T14:01:03.524Z,58.01
2023-04-02T14:02:43.912Z,58.32
2023-04-02T14:04:24.381Z,58.96
2023-04-02T14:06:04.700Z,59.06
2023-04-02T14:07:45.097Z,61.38
2023-04-02T14:09:25.563Z,62.8
2023-04-02T14:11:05.931Z,57.1
2023-04-02T14:12:46.478Z,58.05
2023-04-02T14:14:26.907Z,56.82
2023-04-02T14:16:07.349Z,55.63
2023-04-02T14:17:50.843Z,58.52
2023-04-02T14:19:28.254Z,58.07
2023-04-02T14:21:08.671Z,57.16
2023-04-02T14:22:49.061Z,57.25
2023-04-02T14:24:29.474Z,57.82
2023-04-02T14:26:09.936Z,59.44
2023-04-02T14:27:50.322Z,60.22
2023-04-02T14:29:30.686Z,57.49
2023-04-02T14:31:11.145Z,58.17
2023-04-02T14:32:51.608Z,56.39
2023-04-02T14:34:32.265Z,58.1
2023-04-02T14:36:12.637Z,58.26
2023-04-02T14:37:53.077Z,58.2
2023-04-02T14:39:33.645Z,58.9
2023-04-02T14:41:14.068Z,59.45
2023-04-02T14:42:54.427Z,58.76
2023-04-02T14:44:34.833Z,58.96
2023-04-02T14:46:15.317Z,59.13
2023-04-02T14:47:55.791Z,58.95
2023-04-02T14:49:36.063Z,55.11
2023-04-02T14:51:16.439Z,55.25
2023-04-02T14:52:56.820Z,54.82
2023-04-02T14:54:40.267Z,53.86
2023-04-02T14:56:17.509Z,54.58
2023-04-02T14:57:57.939Z,55.42
2023-04-02T14:59:38.279Z,54.92
2023-04-02T15:01:18.790Z,53.81
2023-04-02T15:02:59.421Z,55.58
2023-04-02T15:04:39.602Z,54.46
2023-04-02T15:06:19.967Z,56.86
2023-04-02T15:08:00.424Z,55.88
2023-04-02T15:09:40.844Z,54.37
2023-04-02T15:11:21.206Z,55.23
2023-04-02T15:13:01.568Z,53.95
2023-04-02T15:14:42.010Z,55.06
2023-04-02T15:16:22.422Z,54.42
2023-04-02T15:18:03.191Z,56.46
2023-04-02T15:19:43.765Z,56.4
2023-04-02T15:21:24.188Z,54.87
2023-04-02T15:23:04.578Z,54.68
2023-04-02T15:24:45.017Z,54.04
2023-04-02T15:26:25.476Z,54.02
2023-04-02T15:28:05.806Z,51.56
2023-04-02T15:29:46.167Z,52.6
2023-04-02T15:31:26.643Z,53.53
2023-04-02T15:33:06.863Z,51.8
2023-04-02T15:34:47.204Z,50.82
2023-04-02T15:36:27.537Z,51.02
2023-04-02T15:38:07.893Z,50.4
2023-04-02T15:39:48.306Z,50.91
2023-04-02T15:41:28.622Z,49.72
2023-04-02T15:43:09.000Z,51.83
2023-04-02T15:44:49.234Z,50.7
2023-04-02T15:46:29.622Z,50.53
2023-04-02T15:48:10.130Z,52.71
2023-04-02T15:49:50.523Z,50.61
2023-04-02T15:51:30.946Z,52.3
2023-04-02T15:53:11.424Z,52.8
2023-04-02T15:54:51.775Z,49.54
2023-04-02T15:56:32.233Z,48.9
2023-04-02T15:58:12.611Z,50.26
2023-04-02T15:59:53.049Z,49.07
2023-04-02T16:01:33.480Z,50.48
2023-04-02T16:03:13.776Z,50.49
2023-04-02T16:04:54.056Z,49.15
2023-04-02T16:06:34.405Z,51.21
2023-04-02T16:08:14.828Z,51.26
2023-04-02T16:09:55.404Z,49.67
2023-04-02T16:11:35.667Z,49.19
2023-04-02T16:13:16.077Z,50.06
2023-04-02T16:14:56.404Z,51.15
2023-04-02T16:16:36.897Z,53.24
2023-04-02T16:18:17.269Z,54.73
2023-04-02T16:19:57.585Z,53.32
2023-04-02T16:21:38.045Z,53.35
2023-04-02T16:23:18.388Z,54.08
2023-04-02T16:25:05.922Z,54.86
2023-04-02T16:26:39.226Z,55.13
2023-04-02T16:28:19.714Z,54.93
2023-04-02T16:30:00.127Z,57.01
2023-04-02T16:31:40.469Z,59.67
2023-04-02T16:33:20.843Z,57.8
2023-04-02T16:35:15.244Z,58.74
2023-04-02T16:36:41.664Z,58.71
2023-04-02T16:38:22.012Z,59.1
2023-04-02T16:40:02.420Z,59.6
2023-04-02T16:41:42.778Z,59.16
2023-04-02T16:43:23.173Z,59.56
2023-04-02T16:45:03.624Z,60.48
2023-04-02T16:46:43.914Z,58.68
2023-04-02T16:48:24.253Z,59.26
2023-04-02T16:50:04.749Z,57.21
2023-04-02T16:51:45.009Z,58.78
2023-04-02T16:53:25.450Z,60.37
2023-04-02T16:55:05.811Z,59.74
2023-04-02T16:56:46.163Z,60.88
2023-04-02T16:58:26.637Z,58.29
2023-04-02T17:00:07.094Z,60.03
2023-04-02T17:01:47.604Z,61.74
2023-04-02T17:03:28.024Z,60.79
2023-04-02T17:05:08.315Z,62.04
2023-04-02T17:06:48.824Z,59.6
2023-04-02T17:08:29.191Z,59.73
2023-04-02T17:10:09.580Z,60.52
2023-04-02T17:11:50.022Z,56.95
2023-04-02T17:13:30.400Z,57.45
2023-04-02T17:15:20.618Z,57.63
2023-04-02T17:16:51.290Z,57.04
2023-04-02T17:18:31.584Z,57.86
2023-04-02T17:20:11.983Z,57.5
2023-04-02T17:21:52.358Z,57.08
2023-04-02T17:23:34.001Z,56.94
2023-04-02T17:25:13.120Z,57.6
2023-04-02T17:26:53.442Z,57.51
2023-04-02T17:28:33.873Z,58.54
2023-04-02T17:30:14.229Z,59.66
2023-04-02T17:31:54.675Z,59.06
2023-04-02T17:33:38.084Z,60.54
2023-04-02T17:35:15.457Z,59.77
2023-04-02T17:36:55.790Z,59.17
2023-04-02T17:38:36.259Z,59.09
2023-04-02T17:40:16.714Z,60.39
2023-04-02T17:41:57.117Z,59.28
2023-04-02T17:43:37.475Z,61.24
2023-04-02T17:45:17.859Z,60.86
2023-04-02T17:46:58.303Z,60.96
2023-04-02T17:48:38.636Z,61.86
2023-04-02T17:50:19.014Z,62
2023-04-02T17:51:59.437Z,61.34
2023-04-02T17:53:39.880Z,61.47
2023-04-02T17:55:20.332Z,63.13
2023-04-02T17:57:00.770Z,62.74
2023-04-02T17:58:42.134Z,62.13
2023-04-02T18:00:21.490Z,62.15
2023-04-02T18:02:01.851Z,63.67
2023-04-02T18:03:42.292Z,64.63
2023-04-02T18:05:22.475Z,62.31
2023-04-02T18:07:02.796Z,63.58
2023-04-02T18:08:43.095Z,61.51
2023-04-02T18:10:23.397Z,62.84
2023-04-02T18:12:03.706Z,64.05
2023-04-02T18:13:43.985Z,65.32
2023-04-02T18:15:24.301Z,66.23
2023-04-02T18:17:04.738Z,64.22
2023-04-02T18:18:45.138Z,65.81
2023-04-02T18:20:25.548Z,65.28
2023-04-02T18:22:05.835Z,65.58
2023-04-02T18:23:46.237Z,65.19
2023-04-02T18:25:26.647Z,64.89
2023-04-02T18:27:07.073Z,65.09
2023-04-02T18:28:50.524Z,64.52
2023-04-02T18:30:27.913Z,64.67
2023-04-02T18:32:08.278Z,65.31
2023-04-02T18:33:48.667Z,65.99
2023-04-02T18:35:29.098Z,66.19
2023-04-02T18:37:09.534Z,65.12
2023-04-02T18:38:49.863Z,65.53
2023-04-02T18:40:37.628Z,65.83
2023-04-02T18:42:10.719Z,65.94
2023-04-02T18:43:51.104Z,66.14
2023-04-02T18:45:31.569Z,67.54
2023-04-02T18:47:11.886Z,67.47
2023-04-02T18:48:52.254Z,69.08
2023-04-02T18:50:36.029Z,68.93
2023-04-02T18:52:12.965Z,67.87
2023-04-02T18:53:53.293Z,68.35
2023-04-02T18:55:33.630Z,68.13
2023-04-02T18:57:13.917Z,67.76
2023-04-02T18:58:54.188Z,68.02
2023-04-02T19:00:35.031Z,66.81
2023-04-02T19:02:14.789Z,68.99
2023-04-02T19:03:55.202Z,73.27
2023-04-02T19:05:35.891Z,72.24
2023-04-02T19:07:18.886Z,72.25
2023-04-02T19:08:56.222Z,72.34
2023-04-02T19:10:36.534Z,72.5
2023-04-02T19:12:23.904Z,71.28
2023-04-02T19:13:57.231Z,66.92
2023-04-02T19:15:37.976Z,67.4
2023-04-02T19:17:17.976Z,68.48
2023-04-02T19:18:58.386Z,69.47
2023-04-02T19:20:38.768Z,66.76
2023-04-02T19:22:19.148Z,67.01
2023-04-02T19:23:59.480Z,66.19
2023-04-02T19:25:39.891Z,65.85
2023-04-02T19:27:20.307Z,67.56
2023-04-02T19:29:00.695Z,65.26
2023-04-02T19:30:44.092Z,64.75
2023-04-02T19:32:24.500Z,66.31
2023-04-02T19:34:01.751Z,66.17
2023-04-02T19:35:42.203Z,66.23
2023-04-02T19:37:22.575Z,66.48
2023-04-02T19:39:02.937Z,64.64
2023-04-02T19:40:43.320Z,65.53
2023-04-02T19:42:23.781Z,64.65
2023-04-02T19:44:04.118Z,64.17
2023-04-02T19:45:51.565Z,66.71
2023-04-02T19:47:24.959Z,64.42
2023-04-02T19:49:05.381Z,63.71
2023-04-02T19:50:45.600Z,65.35
2023-04-02T19:52:25.902Z,64.38
2023-04-02T19:54:06.223Z,62.91
2023-04-02T19:55:46.550Z,63.2
2023-04-02T19:57:26.991Z,64.57
2023-04-02T19:59:17.112Z,67.72
2023-04-02T20:00:47.833Z,68.72
2023-04-02T20:02:28.214Z,66.47
2023-04-02T20:04:08.573Z,65.15
2023-04-02T20:05:48.861Z,66.36
2023-04-02T20:07:29.279Z,66.69
2023-04-02T20:09:12.781Z,67.11
2023-04-02T20:10:50.072Z,65.13
2023-04-02T20:12:30.557Z,66.38
2023-04-02T20:14:10.750Z,65.78
2023-04-02T20:15:51.059Z,66.37
2023-04-02T20:17:31.471Z,65.06
2023-04-02T20:19:11.885Z,64.57
2023-04-02T20:20:52.221Z,63.09
2023-04-02T20:22:32.651Z,65.28
2023-04-02T20:24:13.041Z,66.3
2023-04-02T20:25:53.388Z,64.98
2023-04-02T20:27:33.856Z,64.32
2023-04-02T20:29:14.260Z,65.15
2023-04-02T20:30:54.675Z,62.25
2023-04-02T20:32:36.563Z,63.89
2023-04-02T20:34:15.579Z,65.46
2023-04-02T20:35:55.856Z,64.77
2023-04-02T20:37:36.159Z,63.63
2023-04-02T20:39:16.508Z,65.26
2023-04-02T20:40:56.886Z,64.43
2023-04-02T20:42:37.372Z,64.2
2023-04-02T20:44:17.731Z,65.48
2023-04-02T20:45:58.143Z,66.53
2023-04-02T20:47:38.558Z,65.89
2023-04-02T20:49:18.943Z,65.06
2023-04-02T20:50:59.295Z,65.11
2023-04-02T20:52:39.584Z,64.24
2023-04-02T20:54:20.032Z,66.38
2023-04-02T20:56:00.470Z,66.29
2023-04-02T20:57:43.880Z,66.69
2023-04-02T20:59:21.285Z,67.03
2023-04-02T21:01:01.688Z,68.59
2023-04-02T21:02:42.144Z,68.03
2023-04-02T21:04:22.524Z,68.14
2023-04-02T21:06:02.911Z,68.59
2023-04-02T21:07:43.280Z,69.87
2023-04-02T21:09:23.756Z,71.18
2023-04-02T21:11:04.095Z,71.81
2023-04-02T21:12:44.468Z,70.64
2023-04-02T21:14:24.766Z,71.47
2023-04-02T21:16:05.131Z,71.59
2023-04-02T21:17:45.390Z,73.26
2023-04-02T21:19:25.657Z,72.08
2023-04-02T21:21:06.101Z,70.09
2023-04-02T21:22:46.505Z,73.45
2023-04-02T21:24:26.871Z,74.43
2023-04-02T21:26:07.255Z,74.31
2023-04-02T21:27:47.607Z,72.2
2023-04-02T21:29:28.008Z,73.04
2023-04-02T21:31:08.403Z,75.59
2023-04-02T21:32:48.854Z,76.21
2023-04-02T21:34:29.177Z,76.55
2023-04-02T21:36:09.614Z,75.13
2023-04-02T21:37:49.924Z,75.05
2023-04-02T21:39:30.405Z,75.39